< < Back
Terminal Aerodrome Forecast


Current Version              Previous Versions:   1  2  3  4  5  6  7  8  9  

Terminal Aerodrome Forecast

365
FTUS42 KILM 300500
TAFFLO
TAF
KFLO 300526Z 3006/3106 25010KT P6SM VCSH BKN080 OVC100
     FM301200 32015G25KT P6SM FEW050
     FM310000 35009KT P6SM SKC=



Latest METAR

815
SAUS70 KWBC 301756
MTRFLO
METAR KFLO 301753Z 33014G26KT 10SM CLR 12/M04 A3013 RMK AO2 PK WND
34026/1747 SLP201 T01171044 10117 20089 50005


USA.gov is the U.S. government's official web portal to all federal, state and local government web resources and services.